»·PEaware :: N814 KAJO-KVCV

N814 :: KAJO-KVCV

FLIGHT INFORMATION

Flight Status: Arrived
Operator: Privately registered:
United States
More flights under this callsign
Pilot: Riley T. (30839)
Aircraft: BEECH AIRCRAFT T-6A TEXAN
(TEX2)
More flights by this aircraft type
Origin: KAJO Corona Mun
United States
Destination: KVCV Socal Logistics
United States
More flights between these airports :: More routes between these airports
Route: +PDZ V442 APLES
File this flight plan on PilotEdge
Remarks:
Altitude:
(Current/Filed)
11,000ft
Speed:
(Current/Filed)
240kts
Departed: 02-Oct-20 07:39 AM
Arrived: 02-Oct-20 08:24 AM
Distance/Time
Traveled:
43nm/0:45
Distance/Time
To Go:
Arrived

Flight Plot

Page will automatically refresh every two minutes.


Map Options




Map Legend


Flown Route
Filed Route
Departure Airport
Arrival Airport
Navaid (VOR, NDB)
Fix

Horizontal Profiles

Position Reports

Time Latitude Longitude Heading Altitude Ground
Speed
02-Oct-20 07:33 33.896925 -117.602001 181 537ft 0kts
02-Oct-20 07:34 33.896638 -117.601875 138 537ft 7kts
02-Oct-20 07:35 33.897226 -117.604053 264 537ft 11kts
02-Oct-20 07:36 33.897170 -117.607127 276 537ft 0kts
02-Oct-20 07:37 33.897170 -117.607127 276 537ft 0kts
02-Oct-20 07:38 33.901468 -117.583362 75 1248ft 155kts
02-Oct-20 07:39 33.919812 -117.528891 63 3778ft 195kts
02-Oct-20 07:40 33.956577 -117.475215 42 4963ft 214kts
02-Oct-20 07:41 34.001184 -117.449997 319 5069ft 197kts
02-Oct-20 07:42 33.975956 -117.483768 191 4947ft 177kts
02-Oct-20 07:43 33.937037 -117.508183 238 4797ft 166kts
02-Oct-20 07:44 33.912616 -117.548147 297 4881ft 156kts
02-Oct-20 07:45 33.949941 -117.531785 41 5613ft 176kts
02-Oct-20 07:46 33.984651 -117.492180 58 5905ft 171kts
02-Oct-20 07:47 33.958343 -117.477261 233 7004ft 190kts
02-Oct-20 07:48 33.923218 -117.523999 221 9368ft 179kts
02-Oct-20 07:49 33.933160 -117.565993 8 10939ft 205kts
02-Oct-20 07:50 33.965820 -117.510602 52 10571ft 246kts
02-Oct-20 07:51 34.022277 -117.467892 17 11217ft 244kts
02-Oct-20 07:52 34.085059 -117.430463 24 11031ft 253kts
02-Oct-20 07:53 34.145977 -117.394296 23 11029ft 236kts
02-Oct-20 07:54 34.202850 -117.357603 32 10986ft 232kts
02-Oct-20 07:55 34.261077 -117.322911 26 10958ft 235kts
02-Oct-20 07:56 34.319659 -117.285379 29 10958ft 240kts
02-Oct-20 07:57 34.378090 -117.246043 24 11010ft 240kts
02-Oct-20 07:58 34.438891 -117.213146 25 11089ft 240kts
02-Oct-20 07:59 34.496904 -117.178278 26 10971ft 204kts
02-Oct-20 08:00 34.542480 -117.155386 8 10766ft 169kts
02-Oct-20 08:01 34.591538 -117.144931 7 9686ft 186kts
02-Oct-20 08:02 34.642784 -117.150846 344 8625ft 181kts
02-Oct-20 08:03 34.689952 -117.172219 333 7412ft 180kts
02-Oct-20 08:04 34.730395 -117.206242 320 6646ft 179kts
02-Oct-20 08:05 34.762349 -117.251508 303 6616ft 174kts
02-Oct-20 08:06 34.781579 -117.303307 279 6274ft 167kts
02-Oct-20 08:07 34.796784 -117.355932 290 5265ft 162kts
02-Oct-20 08:08 34.764974 -117.376022 175 4649ft 164kts
02-Oct-20 08:09 34.728633 -117.377884 186 4365ft 127kts
02-Oct-20 08:10 34.692709 -117.381843 179 4421ft 131kts
02-Oct-20 08:11 34.657116 -117.384309 182 3499ft 128kts
02-Oct-20 08:12 34.620838 -117.386388 179 3513ft 147kts
02-Oct-20 08:13 34.600685 -117.429679 301 5684ft 204kts
02-Oct-20 08:14 34.615441 -117.500609 280 5932ft 213kts
02-Oct-20 08:15 34.624383 -117.569383 266 6060ft 199kts
02-Oct-20 08:16 34.576751 -117.575384 123 5599ft 206kts
02-Oct-20 08:17 34.605049 -117.522370 64 5691ft 206kts
02-Oct-20 08:18 34.603250 -117.461621 95 4655ft 109kts
02-Oct-20 08:19 34.599380 -117.422328 89 4063ft 122kts
02-Oct-20 08:20 34.613911 -117.386716 44 3754ft 120kts
02-Oct-20 08:21 34.604915 -117.362004 203 3079ft 109kts
02-Oct-20 08:22 34.592270 -117.376372 228 2864ft 57kts
02-Oct-20 08:23 34.588723 -117.376579 141 2871ft 0kts
02-Oct-20 08:24 34.588723 -117.376579 141 2871ft 0kts

Navigation Log

Ident Type
Flight plan parsing failed, navigation log unavailable